
Software Engineer
| Date Time MST |
Temp °F |
RH % |
DewPt °F |
Wind mph |
Dir ° |
Gust mph |
Dir ° |
Press in Hg |
Solar W/m^2 |
Prec in |
|---|---|---|---|---|---|---|---|---|---|---|
| 2026-05-04 00:30 | 46.3 | 46.4 | 26.9 | 2.7 | 296 | 3.8 | 322 | 24.737 | 0.1 | 0.00 |
| 2026-05-04 00:25 | 47.2 | 45.3 | 27.1 | 2.0 | 312 | 2.6 | 324 | 24.738 | 0.1 | 0.00 |
| 2026-05-04 00:20 | 48.2 | 44.5 | 27.6 | 2.3 | 306 | 3.6 | 303 | 24.738 | 0.1 | 0.00 |
| 2026-05-04 00:15 | 48.5 | 46.2 | 28.8 | 4.0 | 303 | 5.1 | 277 | 24.738 | 0.1 | 0.00 |
| 2026-05-04 00:10 | 48.5 | 51.2 | 31.4 | 6.1 | 277 | 7.0 | 265 | 24.738 | 0.1 | 0.00 |
| 2026-05-04 00:05 | 48.5 | 48.7 | 30.1 | 5.9 | 266 | 6.8 | 265 | 24.738 | 0.1 | 0.00 |
| 2026-05-04 00:00 | 48.0 | 47.5 | 29.0 | 5.1 | 258 | 5.6 | 258 | 24.739 | 0.1 | 0.00 |
| 2026-05-03 23:55 | 48.0 | 42.0 | 26.0 | 3.4 | 250 | 4.5 | 251 | 24.741 | 0.1 | 0.00 |
| 2026-05-03 23:50 | 49.0 | 43.1 | 27.6 | 3.4 | 298 | 4.0 | 325 | 24.744 | 0.1 | 0.00 |
| 2026-05-03 23:45 | 48.4 | 40.0 | 25.2 | 3.1 | 326 | 3.6 | 336 | 24.747 | 0.1 | 0.00 |
| 2026-05-03 23:40 | 46.8 | 46.2 | 27.2 | 3.2 | 331 | 4.5 | 310 | 24.748 | 0.1 | 0.00 |
| 2026-05-03 23:35 | 47.8 | 47.2 | 28.6 | 2.3 | 307 | 3.7 | 260 | 24.748 | 0.1 | 0.00 |
| 2026-05-03 23:30 | 48.1 | 45.7 | 28.1 | 3.6 | 269 | 4.8 | 254 | 24.748 | 0.1 | 0.00 |
| 2026-05-03 23:25 | 48.8 | 42.5 | 27.0 | 3.4 | 245 | 3.8 | 242 | 24.747 | 0.1 | 0.00 |
| 2026-05-03 23:20 | 49.1 | 41.2 | 26.5 | 2.7 | 243 | 3.9 | 243 | 24.747 | 0.1 | 0.00 |
| 2026-05-03 23:15 | 49.5 | 41.0 | 26.8 | 2.6 | 287 | 2.8 | 282 | 24.749 | 0.1 | 0.00 |
| 2026-05-03 23:10 | 49.8 | 39.6 | 26.2 | 3.1 | 289 | 3.6 | 276 | 24.750 | 0.1 | 0.00 |
| 2026-05-03 23:05 | 49.4 | 40.1 | 26.1 | 0.8 | 268 | 2.6 | 274 | 24.750 | 0.1 | 0.00 |
| 2026-05-03 23:00 | 50.1 | 40.1 | 26.8 | 3.9 | 279 | 5.8 | 292 | 24.753 | 0.1 | 0.00 |
| 2026-05-03 22:55 | 50.3 | 38.4 | 25.9 | 5.6 | 286 | 6.1 | 291 | 24.753 | 0.1 | 0.00 |
| 2026-05-03 22:50 | 51.4 | 38.7 | 27.1 | 6.2 | 292 | 6.9 | 297 | 24.753 | 0.0 | 0.00 |
| 2026-05-03 22:45 | 52.7 | 35.1 | 25.9 | 5.5 | 299 | 6.4 | 311 | 24.754 | 0.0 | 0.00 |
| 2026-05-03 22:40 | 52.4 | 34.9 | 25.5 | 5.4 | 305 | 5.9 | 305 | 24.754 | 0.0 | 0.00 |
| 2026-05-03 22:35 | 52.3 | 35.4 | 25.7 | 5.4 | 296 | 6.8 | 292 | 24.755 | 0.0 | 0.00 |
| 2026-05-03 22:30 | 52.3 | 35.3 | 25.7 | 6.9 | 291 | 7.5 | 290 | 24.755 | 0.0 | 0.00 |
| 2026-05-03 22:25 | 51.9 | 35.6 | 25.5 | 7.3 | 284 | 8.0 | 284 | 24.755 | 0.0 | 0.00 |
| 2026-05-03 22:20 | 51.7 | 36.1 | 25.7 | 7.1 | 285 | 7.8 | 294 | 24.754 | 0.0 | 0.00 |
| 2026-05-03 22:15 | 51.4 | 36.7 | 25.8 | 6.9 | 300 | 7.5 | 293 | 24.754 | 0.0 | 0.00 |
| 2026-05-03 22:10 | 51.9 | 36.8 | 26.2 | 7.0 | 298 | 7.9 | 299 | 24.756 | 0.0 | 0.00 |
| 2026-05-03 22:05 | 52.0 | 35.6 | 25.6 | 7.6 | 302 | 9.3 | 305 | 24.756 | 0.0 | 0.00 |
| Date Time MST |
Temp °C |
RH % |
DewPt °C |
Wind m/s |
Dir ° |
Gust m/s |
Dir ° |
Press hPa |
Solar W/m^2 |
Prec mm |
|---|---|---|---|---|---|---|---|---|---|---|
| 2026-05-04 00:30 | 8.0 | 46.4 | -2.8 | 1.2 | 296 | 1.7 | 322 | 837.70 | 0.1 | 0.00 |
| 2026-05-04 00:25 | 8.4 | 45.3 | -2.7 | 0.9 | 312 | 1.2 | 324 | 837.72 | 0.1 | 0.00 |
| 2026-05-04 00:20 | 9.0 | 44.5 | -2.4 | 1.0 | 306 | 1.6 | 303 | 837.72 | 0.1 | 0.00 |
| 2026-05-04 00:15 | 9.2 | 46.2 | -1.8 | 1.8 | 303 | 2.3 | 277 | 837.73 | 0.1 | 0.00 |
| 2026-05-04 00:10 | 9.2 | 51.2 | -0.4 | 2.7 | 277 | 3.1 | 265 | 837.72 | 0.1 | 0.00 |
| 2026-05-04 00:05 | 9.2 | 48.7 | -1.1 | 2.6 | 266 | 3.1 | 265 | 837.72 | 0.1 | 0.00 |
| 2026-05-04 00:00 | 8.9 | 47.5 | -1.7 | 2.3 | 258 | 2.5 | 258 | 837.75 | 0.1 | 0.00 |
| 2026-05-03 23:55 | 8.9 | 42.0 | -3.3 | 1.5 | 250 | 2.0 | 251 | 837.83 | 0.1 | 0.00 |
| 2026-05-03 23:50 | 9.4 | 43.1 | -2.5 | 1.5 | 298 | 1.8 | 325 | 837.93 | 0.1 | 0.00 |
| 2026-05-03 23:45 | 9.1 | 40.0 | -3.8 | 1.4 | 326 | 1.6 | 336 | 838.02 | 0.1 | 0.00 |
| 2026-05-03 23:40 | 8.2 | 46.2 | -2.7 | 1.4 | 331 | 2.0 | 310 | 838.07 | 0.1 | 0.00 |
| 2026-05-03 23:35 | 8.8 | 47.2 | -1.9 | 1.0 | 307 | 1.7 | 260 | 838.07 | 0.1 | 0.00 |
| 2026-05-03 23:30 | 8.9 | 45.7 | -2.1 | 1.6 | 269 | 2.2 | 254 | 838.07 | 0.1 | 0.00 |
| 2026-05-03 23:25 | 9.3 | 42.5 | -2.8 | 1.5 | 245 | 1.7 | 242 | 838.04 | 0.1 | 0.00 |
| 2026-05-03 23:20 | 9.5 | 41.2 | -3.1 | 1.2 | 243 | 1.8 | 243 | 838.03 | 0.1 | 0.00 |
| 2026-05-03 23:15 | 9.7 | 41.0 | -2.9 | 1.1 | 287 | 1.2 | 282 | 838.09 | 0.1 | 0.00 |
| 2026-05-03 23:10 | 9.9 | 39.6 | -3.2 | 1.4 | 289 | 1.6 | 276 | 838.12 | 0.1 | 0.00 |
| 2026-05-03 23:05 | 9.7 | 40.1 | -3.3 | 0.4 | 268 | 1.2 | 274 | 838.14 | 0.1 | 0.00 |
| 2026-05-03 23:00 | 10.1 | 40.1 | -2.9 | 1.8 | 279 | 2.6 | 292 | 838.22 | 0.1 | 0.00 |
| 2026-05-03 22:55 | 10.2 | 38.4 | -3.4 | 2.5 | 286 | 2.7 | 291 | 838.23 | 0.1 | 0.00 |
| 2026-05-03 22:50 | 10.8 | 38.7 | -2.7 | 2.8 | 292 | 3.1 | 297 | 838.24 | 0.0 | 0.00 |
| 2026-05-03 22:45 | 11.5 | 35.1 | -3.4 | 2.5 | 299 | 2.8 | 311 | 838.27 | 0.0 | 0.00 |
| 2026-05-03 22:40 | 11.3 | 34.9 | -3.6 | 2.4 | 305 | 2.6 | 305 | 838.27 | 0.0 | 0.00 |
| 2026-05-03 22:35 | 11.3 | 35.4 | -3.5 | 2.4 | 296 | 3.0 | 292 | 838.30 | 0.0 | 0.00 |
| 2026-05-03 22:30 | 11.3 | 35.3 | -3.5 | 3.1 | 291 | 3.4 | 290 | 838.30 | 0.0 | 0.00 |
| 2026-05-03 22:25 | 11.0 | 35.6 | -3.6 | 3.3 | 284 | 3.6 | 284 | 838.29 | 0.0 | 0.00 |
| 2026-05-03 22:20 | 10.9 | 36.1 | -3.5 | 3.2 | 285 | 3.5 | 294 | 838.27 | 0.0 | 0.00 |
| 2026-05-03 22:15 | 10.8 | 36.7 | -3.5 | 3.1 | 300 | 3.3 | 293 | 838.26 | 0.0 | 0.00 |
| 2026-05-03 22:10 | 11.0 | 36.8 | -3.2 | 3.1 | 298 | 3.5 | 299 | 838.34 | 0.0 | 0.00 |
| 2026-05-03 22:05 | 11.1 | 35.6 | -3.6 | 3.4 | 302 | 4.1 | 305 | 838.33 | 0.0 | 0.00 |

Software Engineer
Cooperative Institute for Research in the Atmosphere
Colorado State University
1375 Campus Delivery
Fort Collins, CO 80523-1375